MMZC/ZCL METAR and TAF weather

Enter ICAO airport designator
Station Type Date Time Source
MMZC METAR 2019/10/23 07:40 UTC NOAA

MMZC 230740Z 00000KT 10SM SCT100 13/09 A3027 RMK 8/030


Station Type Date Time Source
MMZC Decoded METAR 2019/10/23 07:40 UTC NOAA

Zacatecas Airport, Mexico (MMZC) 22-54N 102-41W
Oct 23, 2019 - 03:40 AM EDT / 2019.10.23 0740 UTC
Wind: Calm:0
Visibility: 10 mile(s):0
Sky conditions: partly cloudy
Temperature: 55 F (13 C)
Dew Point: 48 F (9 C)
Relative Humidity: 76%
Pressure (altimeter): 30.27 in. Hg (1025 hPa)
ob: MMZC 230740Z 00000KT 10SM SCT100 13/09 A3027 RMK 8/030
cycle: 7

Station Type Date Time Source
MMZC TAF 2019/10/23 06:55 UTC NOAA

TAF MMZC 230448Z 2306/2412 15010KT P6SM SCT100 TX19/2322Z TN13/2312Z
FM231800 14012KT P6SM SCT025 BKN090 PROB40 2323/2403 5SM -TSRA BKN025CB
FM240700 12008KT P6SM SCT030 SCT090 BKN230

Example: see airport list